Sasovo, Russia
Current Conditions -  °F | °C
As of 7:30 AM on Wednesday 22 Oct 2014 (Local Time) from UWGG Reporting Station
Light Snow Light Snow  
Wind Chill: 11°   Ceiling: 900
Heat Index: 19°   Visibility: 1.6mi
Dew Point: 18°   Wind: 7mph
Humidity: 93%   Direction: 310°NW
Pressure: 29.53"   Gusts: NA
Location:  54.35°N, 41.91°E
Report Text: UWGG 220430Z 31003MPS 2700 -SN OVC009 M07/M08 Q1000 TEMPO31007G14MPS 0500 +SN BLSN OVC005
Loading
Personal Weather Stations






























Interactive Weather Map
Tropical Storm Tracking
New forecast layout! Learn more

10-Day Weather Forecast

Advertisements
Track Severe Weather on mobile